Time;durP1;ratioP1;P1;durP2;ratioP2;P2;SDS_P1;SDS_P2;PMS_P1;PMS_P2;Temp;Humidity;BMP_temperature;BMP_pressure;BME280_temperature;BME280_humidity;BME280_pressure;Samples;Min_cycle;Max_cycle;Signal;HPM_P1;HPM_P2
2021/12/11 00:00:26;;;;;;;2.77;1.00;;;;;;;-145.69;100.00;71728.75;5074511;28;20708;-78
2021/12/11 00:03:00;;;;;;;0.90;0.80;;;;;;;-145.69;100.00;71736.72;5075487;28;20226;-77
2021/12/11 00:05:28;;;;;;;1.07;0.80;;;;;;;-145.69;100.00;71728.75;5074855;28;20205;-76
2021/12/11 00:07:55;;;;;;;0.70;0.70;;;;;;;-145.69;100.00;71728.75;5073019;28;20673;-77
2021/12/11 00:10:27;;;;;;;1.00;0.90;;;;;;;-145.69;100.00;71744.66;5073941;28;20225;-77
2021/12/11 00:13:04;;;;;;;2.13;0.90;;;;;;;-145.69;100.00;71740.69;5074951;28;20252;-77
2021/12/11 00:15:34;;;;;;;2.83;0.80;;;;;;;-145.69;100.00;71756.59;5073667;28;20199;-77
2021/12/11 00:18:05;;;;;;;3.50;1.20;;;;;;;-145.69;100.00;71764.56;5074080;28;20202;-77
2021/12/11 00:20:36;;;;;;;0.60;0.60;;;;;;;-145.69;100.00;71760.59;5074439;28;20199;-78
2021/12/11 00:23:03;;;;;;;1.37;0.80;;;;;;;-145.69;100.00;71766.56;5074462;28;20218;-77
2021/12/11 00:25:31;;;;;;;0.93;0.60;;;;;;;-145.69;100.00;71764.56;5074010;28;20199;-78
2021/12/11 00:28:04;;;;;;;1.47;0.60;;;;;;;-145.69;100.00;71764.56;5074203;28;20244;-77
2021/12/11 00:30:35;;;;;;;1.80;0.60;;;;;;;-145.69;100.00;71776.50;5064293;28;20265;-78
2021/12/11 00:33:06;;;;;;;1.53;0.73;;;;;;;-145.69;100.00;71784.47;5054137;28;20200;-78
2021/12/11 00:35:34;;;;;;;0.70;0.70;;;;;;;-145.69;100.00;71786.47;5053331;28;20694;-78
2021/12/11 00:38:05;;;;;;;0.90;0.63;;;;;;;-145.69;100.00;71780.50;5054161;28;20202;-78
2021/12/11 00:40:34;;;;;;;1.93;0.90;;;;;;;-145.69;100.00;71790.44;5064610;28;20198;-77
2021/12/11 00:43:04;;;;;;;1.47;0.80;;;;;;;-145.69;100.00;71792.44;5074215;28;20234;-78
2021/12/11 00:45:35;;;;;;;0.90;0.80;;;;;;;-145.69;100.00;71788.44;5074873;28;20199;-77
2021/12/11 00:48:04;;;;;;;1.17;0.63;;;;;;;-145.69;100.00;71780.50;5073047;28;20207;-77
2021/12/11 00:50:35;;;;;;;0.70;0.70;;;;;;;-145.69;100.00;71792.44;5072667;28;20198;-78
2021/12/11 00:53:07;;;;;;;2.97;0.73;;;;;;;-145.69;100.00;71792.44;5073638;28;20716;-78
2021/12/11 00:55:40;;;;;;;1.10;1.00;;;;;;;-145.69;100.00;71796.41;5073913;28;20259;-78
2021/12/11 00:58:09;;;;;;;0.97;0.60;;;;;;;-145.69;100.00;71804.38;5074462;28;20202;-78
2021/12/11 01:00:40;;;;;;;1.33;0.90;;;;;;;-145.69;100.00;71800.38;5074294;28;20260;-78
2021/12/11 01:03:07;;;;;;;1.57;0.70;;;;;;;-145.69;100.00;71804.38;5073863;28;20232;-77
2021/12/11 01:05:37;;;;;;;0.70;0.50;;;;;;;-145.69;100.00;71808.34;5072887;28;20688;-78
2021/12/11 01:08:17;;;;;;;2.13;0.80;;;;;;;-145.69;100.00;71814.31;5073324;28;20727;-78
2021/12/11 01:10:47;;;;;;;0.87;0.67;;;;;;;-145.69;100.00;71810.34;5072760;28;20653;-78
2021/12/11 01:13:18;;;;;;;0.80;0.80;;;;;;;-145.69;100.00;71818.31;5073863;28;20199;-78
2021/12/11 01:15:48;;;;;;;0.63;0.50;;;;;;;-145.69;100.00;71816.31;5073885;28;20289;-77
2021/12/11 01:18:23;;;;;;;0.60;0.60;;;;;;;-145.69;100.00;71820.28;5071921;28;20207;-78
2021/12/11 01:20:59;;;;;;;1.27;0.67;;;;;;;-145.69;100.00;71832.22;5073771;28;20202;-78
2021/12/11 01:23:45;;;;;;;1.00;0.70;;;;;;;-145.69;100.00;71836.22;5074343;28;20230;-78
2021/12/11 01:26:15;;;;;;;1.47;0.50;;;;;;;-145.69;100.00;71844.16;5074105;28;20229;-77
2021/12/11 01:28:42;;;;;;;1.80;0.70;;;;;;;-145.69;100.00;71850.13;5073743;28;20233;-78
2021/12/11 01:31:11;;;;;;;1.07;0.70;;;;;;;-145.69;100.00;71850.13;5074044;28;20209;-77
2021/12/11 01:33:38;;;;;;;1.03;0.70;;;;;;;-145.69;100.00;71856.09;5073905;28;20203;-78
2021/12/11 01:36:07;;;;;;;1.50;0.70;;;;;;;-145.69;100.00;71864.06;5074216;28;20203;-78
2021/12/11 01:38:35;;;;;;;0.60;0.60;;;;;;;-145.69;100.00;71864.06;5074024;28;20198;-78
2021/12/11 01:41:16;;;;;;;0.83;0.60;;;;;;;-145.69;100.00;71868.06;5073017;28;20657;-77
2021/12/11 01:43:46;;;;;;;0.50;0.50;;;;;;;-145.69;100.00;71874.03;5073821;28;20316;-78
2021/12/11 01:46:13;;;;;;;2.17;0.50;;;;;;;-145.69;100.00;71876.00;5073129;28;20542;-78
2021/12/11 01:48:43;;;;;;;0.60;0.60;;;;;;;-145.69;100.00;71880.00;5073162;28;20252;-78
2021/12/11 01:51:16;;;;;;;2.20;0.70;;;;;;;-145.69;100.00;71883.97;5073227;28;20202;-77
2021/12/11 01:53:46;;;;;;;0.77;0.70;;;;;;;-145.69;100.00;71878.00;5072735;28;20598;-78
2021/12/11 01:56:16;;;;;;;1.03;0.67;;;;;;;-145.69;100.00;71885.97;5072843;28;20673;-78
2021/12/11 01:58:50;;;;;;;1.33;0.70;;;;;;;-145.69;100.00;71893.91;5073473;28;20195;-78
2021/12/11 02:01:19;;;;;;;0.73;0.67;;;;;;;-145.69;100.00;71885.97;5073395;28;20230;-78
2021/12/11 02:03:49;;;;;;;0.63;0.63;;;;;;;-145.69;100.00;71878.00;5071940;28;20226;-77
2021/12/11 02:06:15;;;;;;;0.77;0.70;;;;;;;-145.69;100.00;71876.00;5071951;28;20560;-78
2021/12/11 02:08:43;;;;;;;1.57;0.60;;;;;;;-145.69;100.00;71889.94;5072307;28;20612;-78
2021/12/11 02:11:12;;;;;;;0.47;0.47;;;;;;;-145.69;100.00;71893.91;5072444;28;20293;-77
2021/12/11 02:13:45;;;;;;;1.03;0.60;;;;;;;-145.69;100.00;71903.88;5072817;28;20210;-77
2021/12/11 02:16:19;;;;;;;0.43;0.43;;;;;;;-145.69;100.00;71895.91;5072903;28;20194;-77
2021/12/11 02:18:49;;;;;;;0.60;0.50;;;;;;;-145.69;100.00;71895.91;5072899;28;20202;-77
2021/12/11 02:21:20;;;;;;;3.40;0.70;;;;;;;-145.69;100.00;71903.88;5073068;28;20210;-78
2021/12/11 02:23:57;;;;;;;1.00;0.60;;;;;;;-145.69;100.00;71907.84;5072671;28;20709;-77
2021/12/11 02:26:24;;;;;;;0.50;0.50;;;;;;;-145.69;100.00;71909.84;5072780;28;20199;-77
2021/12/11 02:28:57;;;;;;;0.87;0.87;;;;;;;-145.69;100.00;71915.81;5072540;28;20387;-77
2021/12/11 02:31:28;;;;;;;2.17;1.30;;;;;;;-145.69;100.00;71913.81;5072269;28;20202;-77
2021/12/11 02:33:58;;;;;;;0.67;0.60;;;;;;;-145.69;100.00;71915.81;5073297;28;20340;-77
2021/12/11 02:36:28;;;;;;;1.33;0.90;;;;;;;-145.69;100.00;71917.81;5073159;28;20206;-77
2021/12/11 02:38:59;;;;;;;0.70;0.70;;;;;;;-145.69;100.00;71915.81;5073181;28;20657;-77
2021/12/11 02:41:31;;;;;;;0.70;0.70;;;;;;;-145.69;100.00;71927.75;5066773;28;20203;-78
2021/12/11 02:44:00;;;;;;;0.70;0.70;;;;;;;-145.69;100.00;71937.69;5071132;28;20233;-77
2021/12/11 02:46:36;;;;;;;0.50;0.50;;;;;;;-145.69;100.00;71931.72;5070948;28;20198;-77
2021/12/11 02:49:09;;;;;;;0.67;0.67;;;;;;;-145.69;100.00;71935.72;5071203;28;20198;-77
2021/12/11 02:51:39;;;;;;;0.93;0.83;;;;;;;-145.69;100.00;71939.69;5070984;28;20206;-77
2021/12/11 02:54:13;;;;;;;1.87;0.80;;;;;;;-145.69;100.00;71927.75;5070384;28;20257;-77
2021/12/11 02:56:43;;;;;;;2.37;0.70;;;;;;;-145.69;100.00;71937.69;5072948;28;20194;-77
2021/12/11 02:59:15;;;;;;;0.53;0.53;;;;;;;-145.69;100.00;71925.75;5073220;28;20600;-77
2021/12/11 03:01:44;;;;;;;1.87;0.60;;;;;;;-145.69;100.00;71935.72;5072857;28;20281;-77
2021/12/11 03:04:19;;;;;;;1.07;0.80;;;;;;;-145.69;100.00;71943.69;5072660;28;20226;-77
2021/12/11 03:06:48;;;;;;;1.83;0.70;;;;;;;-145.69;100.00;71939.69;5072408;28;20202;-77
2021/12/11 03:09:19;;;;;;;0.47;0.47;;;;;;;-145.69;100.00;71941.69;5072851;28;20203;-78
2021/12/11 03:11:47;;;;;;;1.20;0.70;;;;;;;-145.69;100.00;71957.59;5072720;28;20203;-78
2021/12/11 03:14:18;;;;;;;0.60;0.60;;;;;;;-145.69;100.00;71951.63;5072805;28;20205;-77
2021/12/11 03:16:45;;;;;;;0.80;0.77;;;;;;;-145.69;100.00;71955.63;5072648;28;20198;-77
2021/12/11 03:19:15;;;;;;;0.70;0.70;;;;;;;-145.69;100.00;71953.63;5072408;28;20190;-77
2021/12/11 03:21:42;;;;;;;1.70;0.60;;;;;;;-145.69;100.00;71949.66;5072820;28;20290;-78
2021/12/11 03:24:11;;;;;;;0.63;0.63;;;;;;;-145.69;100.00;71951.63;5072517;28;20233;-76
2021/12/11 03:26:40;;;;;;;2.90;0.80;;;;;;;-145.69;100.00;71955.63;5072619;28;20565;-77
2021/12/11 03:29:07;;;;;;;1.00;0.70;;;;;;;-145.69;100.00;71955.63;5072322;28;20253;-77
2021/12/11 03:31:36;;;;;;;2.43;0.63;;;;;;;-145.69;100.00;71963.56;5072400;28;20207;-77
2021/12/11 03:34:05;;;;;;;0.60;0.60;;;;;;;-145.69;100.00;71959.59;5072333;28;20657;-77
2021/12/11 03:36:33;;;;;;;1.93;0.73;;;;;;;-145.69;100.00;71955.63;5072669;28;20557;-77
2021/12/11 03:39:04;;;;;;;0.60;0.60;;;;;;;-145.69;100.00;71965.56;5072625;28;20201;-77
2021/12/11 03:41:31;;;;;;;0.70;0.70;;;;;;;-145.69;100.00;71975.50;5072284;28;20203;-77
2021/12/11 03:43:59;;;;;;;1.20;0.80;;;;;;;-145.69;100.00;71981.50;5074890;28;20276;-77
2021/12/11 03:46:26;;;;;;;2.97;0.70;;;;;;;-145.69;100.00;71985.47;5075903;28;20885;-78
2021/12/11 03:48:57;;;;;;;1.23;0.70;;;;;;;-145.69;100.00;71991.44;5076120;28;20260;-77
2021/12/11 03:51:28;;;;;;;0.70;0.70;;;;;;;-145.69;100.00;71995.41;5075176;28;20650;-77
2021/12/11 03:53:56;;;;;;;0.80;0.80;;;;;;;-145.69;100.00;71999.41;5075738;28;20238;-78
2021/12/11 03:56:22;;;;;;;0.83;0.83;;;;;;;-145.69;100.00;71997.41;5075540;28;20723;-77
2021/12/11 03:58:51;;;;;;;1.27;0.70;;;;;;;-145.69;100.00;72005.38;5075510;28;20195;-77
2021/12/11 04:01:25;;;;;;;0.90;0.70;;;;;;;-145.69;100.00;72009.34;5075348;28;20195;-77
2021/12/11 04:03:53;;;;;;;1.63;0.80;;;;;;;-145.69;100.00;72019.31;5075457;28;20232;-77
2021/12/11 04:06:21;;;;;;;0.80;0.60;;;;;;;-145.69;100.00;72031.25;5075497;28;20203;-78
2021/12/11 04:08:48;;;;;;;0.60;0.60;;;;;;;-145.69;100.00;72033.22;5075866;28;20256;-77
2021/12/11 04:11:19;;;;;;;0.50;0.50;;;;;;;-145.69;100.00;72043.19;5075148;28;20229;-77
2021/12/11 04:13:49;;;;;;;0.70;0.70;;;;;;;-145.69;100.00;72037.22;5075158;28;20206;-78
2021/12/11 04:16:16;;;;;;;2.53;0.70;;;;;;;-145.69;100.00;72045.16;5075513;28;20260;-78
2021/12/11 04:18:45;;;;;;;0.50;0.50;;;;;;;-145.69;100.00;72063.09;5075302;28;20232;-77
2021/12/11 04:21:12;;;;;;;0.60;0.60;;;;;;;-145.69;100.00;72067.06;5075247;28;20199;-78
2021/12/11 04:23:38;;;;;;;1.27;0.70;;;;;;;-145.69;100.00;72081.00;5074668;28;20223;-79
2021/12/11 04:26:06;;;;;;;0.60;0.60;;;;;;;-145.69;100.00;72077.00;5075354;28;20285;-78
2021/12/11 04:28:35;;;;;;;0.70;0.70;;;;;;;-145.69;100.00;72088.97;5075045;28;20723;-78
2021/12/11 04:31:06;;;;;;;0.83;0.63;;;;;;;-145.69;100.00;72094.94;5075229;28;20202;-78
2021/12/11 04:33:37;;;;;;;1.47;0.80;;;;;;;-145.69;100.00;72094.94;5074971;28;20608;-77
2021/12/11 04:36:08;;;;;;;1.80;0.93;;;;;;;-145.69;100.00;72098.91;5068309;28;20222;-77
2021/12/11 04:38:34;;;;;;;0.80;0.80;;;;;;;-145.69;100.00;72106.88;5074933;28;20245;-78
2021/12/11 04:41:02;;;;;;;0.80;0.80;;;;;;;-145.69;100.00;72110.84;5075084;28;20218;-77
2021/12/11 04:43:29;;;;;;;2.20;0.83;;;;;;;-145.69;100.00;72120.81;5074790;28;20233;-78
2021/12/11 04:46:01;;;;;;;0.90;0.90;;;;;;;-145.69;100.00;72122.78;5074804;28;20209;-77
2021/12/11 04:48:36;;;;;;;1.07;0.97;;;;;;;-145.69;100.00;72134.72;5074308;28;20207;-77
2021/12/11 04:51:13;;;;;;;1.27;1.10;;;;;;;-145.69;100.00;72132.75;5074872;28;20197;-77
2021/12/11 04:53:53;;;;;;;4.13;1.00;;;;;;;-145.69;100.00;72140.69;5060490;28;20459;-78
2021/12/11 04:56:46;;;;;;;3.97;1.30;;;;;;;-145.69;100.00;72146.69;5074173;28;20216;-77
2021/12/11 04:59:30;;;;;;;1.87;1.30;;;;;;;-145.69;100.00;72158.63;5074283;28;20203;-78
2021/12/11 05:02:10;;;;;;;3.23;1.40;;;;;;;-145.69;100.00;72156.63;5074087;28;20671;-78
2021/12/11 05:04:52;;;;;;;2.43;1.50;;;;;;;-145.69;100.00;72166.56;5074293;28;20230;-77
2021/12/11 05:07:29;;;;;;;3.13;1.53;;;;;;;-145.69;100.00;72182.50;5074210;28;20257;-77
2021/12/11 05:10:03;;;;;;;2.53;1.50;;;;;;;-145.69;100.00;72190.47;5074461;28;20205;-78
2021/12/11 05:12:35;;;;;;;1.77;1.30;;;;;;;-145.69;100.00;72202.41;5074331;28;20205;-77
2021/12/11 05:15:05;;;;;;;4.77;1.60;;;;;;;-145.69;100.00;72212.34;5073783;28;20198;-77
2021/12/11 05:17:31;;;;;;;2.00;1.50;;;;;;;-145.69;100.00;72218.31;5074073;28;20199;-78
2021/12/11 05:19:58;;;;;;;1.63;1.40;;;;;;;-145.69;100.00;72218.31;5073845;28;20723;-78
2021/12/11 05:22:26;;;;;;;2.50;1.70;;;;;;;-145.69;100.00;72224.28;5074126;28;20203;-77
2021/12/11 05:24:55;;;;;;;3.57;1.20;;;;;;;-145.69;100.00;72232.25;5073950;28;20230;-78
2021/12/11 05:27:23;;;;;;;1.80;1.30;;;;;;;-145.69;100.00;72228.28;5073662;28;20202;-78
2021/12/11 05:29:50;;;;;;;1.70;1.40;;;;;;;-145.69;100.00;72242.22;5073765;28;20260;-78
2021/12/11 05:32:19;;;;;;;1.40;1.10;;;;;;;-145.69;100.00;72240.22;5073695;28;20207;-78
2021/12/11 05:34:46;;;;;;;1.57;1.00;;;;;;;-145.69;100.00;72248.19;5073942;28;20257;-78
2021/12/11 05:37:13;;;;;;;2.47;1.20;;;;;;;-145.69;100.00;72250.16;5073552;28;20665;-77
2021/12/11 05:39:42;;;;;;;1.33;1.03;;;;;;;-145.69;100.00;72254.16;5073811;28;20249;-78
2021/12/11 05:42:09;;;;;;;1.37;1.27;;;;;;;-145.69;100.00;72272.06;5073583;28;20199;-78
2021/12/11 05:44:36;;;;;;;1.43;1.27;;;;;;;-145.69;100.00;72278.03;5073547;28;20223;-78
2021/12/11 05:47:04;;;;;;;3.90;1.57;;;;;;;-145.69;100.00;72284.00;5073416;28;20202;-78
2021/12/11 05:49:31;;;;;;;1.50;1.30;;;;;;;-145.69;100.00;72286.00;5073119;28;20442;-78
2021/12/11 05:51:58;;;;;;;3.67;1.27;;;;;;;-145.69;100.00;72293.94;5073311;28;20210;-77
2021/12/11 05:54:27;;;;;;;1.47;1.37;;;;;;;-145.69;100.00;72297.94;5073221;28;20277;-78
2021/12/11 05:57:01;;;;;;;1.30;1.20;;;;;;;-145.69;100.00;72307.88;5073481;28;20581;-78
2021/12/11 05:59:29;;;;;;;2.33;1.60;;;;;;;-145.69;100.00;72315.84;5073276;28;20202;-78
2021/12/11 06:01:58;;;;;;;1.83;1.47;;;;;;;-145.69;100.00;72313.84;5073171;28;20195;-77
2021/12/11 06:04:28;;;;;;;1.60;1.43;;;;;;;-145.69;100.00;72325.81;5073496;28;20230;-77
2021/12/11 06:06:55;;;;;;;1.77;1.53;;;;;;;-145.69;100.00;72323.81;5073066;28;20213;-77
2021/12/11 06:09:24;;;;;;;2.33;1.80;;;;;;;-145.69;100.00;72331.78;5073238;28;20255;-77
2021/12/11 06:11:53;;;;;;;3.30;1.80;;;;;;;-145.69;100.00;72339.72;5072951;28;20202;-77
2021/12/11 06:14:21;;;;;;;2.83;2.07;;;;;;;-145.69;100.00;72341.72;5072722;28;20195;-77
2021/12/11 06:16:50;;;;;;;2.83;1.87;;;;;;;-145.69;100.00;72341.72;5073310;28;20202;-77
2021/12/11 06:19:20;;;;;;;2.03;1.50;;;;;;;-145.69;100.00;72341.72;5073175;28;20210;-78
2021/12/11 06:21:47;;;;;;;2.20;1.77;;;;;;;-145.69;100.00;72349.69;5073385;28;20203;-78
2021/12/11 06:24:14;;;;;;;3.90;2.80;;;;;;;-145.69;100.00;72337.75;5072932;28;20803;-78
2021/12/11 06:26:40;;;;;;;2.20;2.00;;;;;;;-145.69;100.00;72347.69;5072599;28;20216;-78
2021/12/11 06:29:07;;;;;;;3.13;2.00;;;;;;;-145.69;100.00;72355.66;5072798;28;20672;-77
2021/12/11 06:31:35;;;;;;;2.57;1.97;;;;;;;-145.69;100.00;72363.63;5072807;28;20195;-78
2021/12/11 06:34:02;;;;;;;3.90;2.20;;;;;;;-145.69;100.00;72369.59;5072918;28;20561;-78
2021/12/11 06:36:30;;;;;;;3.17;2.10;;;;;;;-145.69;100.00;72369.59;5072768;28;20202;-78
2021/12/11 06:38:59;;;;;;;3.70;2.37;;;;;;;-145.69;100.00;72373.56;5064067;28;20201;-77
2021/12/11 06:41:30;;;;;;;3.17;2.40;;;;;;;-145.69;100.00;72389.50;5052716;28;20199;-78
2021/12/11 06:43:57;;;;;;;3.67;2.63;;;;;;;-145.69;100.00;72393.47;5052842;28;20539;-77
2021/12/11 06:46:24;;;;;;;3.13;2.07;;;;;;;-145.69;100.00;72393.47;5052795;28;20562;-77
2021/12/11 06:48:52;;;;;;;3.60;2.67;;;;;;;-145.69;100.00;72399.44;5052762;28;20208;-77
2021/12/11 06:51:19;;;;;;;3.03;2.40;;;;;;;-145.69;100.00;72403.41;5067684;28;20198;-77
2021/12/11 06:53:49;;;;;;;9.33;4.47;;;;;;;-145.69;100.00;72409.38;5072460;28;20226;-77
2021/12/11 06:56:19;;;;;;;8.27;4.87;;;;;;;-145.69;100.00;72417.34;5072765;28;20207;-77
2021/12/11 06:58:46;;;;;;;7.00;4.57;;;;;;;-145.69;100.00;72415.38;5072506;28;20199;-78
2021/12/11 07:01:14;;;;;;;7.10;3.73;;;;;;;-145.69;100.00;72429.28;5072705;28;20198;-78
2021/12/11 07:03:41;;;;;;;2.70;2.20;;;;;;;-145.69;100.00;72437.25;5072407;28;20682;-77
2021/12/11 07:06:09;;;;;;;5.40;3.53;;;;;;;-145.69;100.00;72435.28;5072312;28;20234;-77
2021/12/11 07:08:38;;;;;;;3.23;2.40;;;;;;;-145.69;100.00;72441.25;5072175;28;20538;-78
2021/12/11 07:11:06;;;;;;;6.07;3.47;;;;;;;-145.69;100.00;72449.19;5072607;28;20201;-77
2021/12/11 07:13:33;;;;;;;3.83;2.23;;;;;;;-145.69;100.00;72445.22;5072487;28;20199;-77
2021/12/11 07:16:00;;;;;;;1.90;1.70;;;;;;;-145.69;100.00;72453.19;5072414;28;20226;-78
2021/12/11 07:18:28;;;;;;;2.00;1.80;;;;;;;-145.69;100.00;72455.16;5074485;28;20206;-77
2021/12/11 07:20:54;;;;;;;2.13;1.73;;;;;;;-145.69;100.00;72469.09;5075828;28;20294;-78
2021/12/11 07:23:22;;;;;;;1.90;1.70;;;;;;;-145.69;100.00;72477.06;5076033;28;20198;-77
2021/12/11 07:25:53;;;;;;;2.83;1.90;;;;;;;-145.69;100.00;72477.06;5075945;28;20697;-77
2021/12/11 07:28:21;;;;;;;2.30;1.80;;;;;;;-145.69;100.00;72477.06;5076002;28;20661;-78
2021/12/11 07:30:49;;;;;;;1.80;1.70;;;;;;;-145.69;100.00;72483.03;5076054;28;20233;-78
2021/12/11 07:33:17;;;;;;;2.33;1.97;;;;;;;-145.69;100.00;72473.09;5075603;28;20202;-78
2021/12/11 07:35:45;;;;;;;2.73;2.10;;;;;;;-145.69;100.00;72493.00;5076064;28;20233;-78
2021/12/11 07:38:12;;;;;;;1.57;1.47;;;;;;;-145.69;100.00;72483.03;5075977;28;20207;-78
2021/12/11 07:40:42;;;;;;;2.83;2.57;;;;;;;-145.69;100.00;72489.00;5075834;28;20203;-78
2021/12/11 07:43:12;;;;;;;2.27;1.93;;;;;;;-145.69;100.00;72500.94;5075764;28;20281;-78
2021/12/11 07:45:40;;;;;;;3.10;2.07;;;;;;;-145.69;100.00;72512.91;5075319;28;20291;-77
2021/12/11 07:48:07;;;;;;;2.50;1.93;;;;;;;-145.69;100.00;72512.91;5075588;28;20205;-77
2021/12/11 07:50:34;;;;;;;2.50;2.13;;;;;;;-145.69;100.00;72512.91;5075698;28;20249;-78
2021/12/11 07:53:01;;;;;;;2.90;2.30;;;;;;;-145.69;100.00;72528.81;5075430;28;20231;-77
2021/12/11 07:55:28;;;;;;;2.90;2.10;;;;;;;-145.69;100.00;72528.81;5075572;28;20205;-77
2021/12/11 07:57:56;;;;;;;4.67;2.70;;;;;;;-145.69;100.00;72526.81;5075439;28;20199;-78
2021/12/11 08:00:26;;;;;;;3.33;2.73;;;;;;;-145.69;100.00;72532.78;5075518;28;20205;-77
2021/12/11 08:02:53;;;;;;;3.67;2.77;;;;;;;-145.69;100.00;72542.75;5075240;28;20535;-78
2021/12/11 08:05:20;;;;;;;4.00;2.73;;;;;;;-145.69;100.00;72546.72;5075550;28;20234;-78
2021/12/11 08:07:46;;;;;;;4.43;2.87;;;;;;;-145.69;100.00;72552.69;5075489;28;20252;-77
2021/12/11 08:10:18;;;;;;;3.60;2.60;;;;;;;-145.69;100.00;72552.69;5075228;28;20199;-77
2021/12/11 08:12:45;;;;;;;4.27;2.80;;;;;;;-145.69;100.00;72556.69;5075331;28;20198;-77
2021/12/11 08:15:15;;;;;;;6.00;2.90;;;;;;;-145.69;100.00;72564.66;5075292;28;20553;-78
2021/12/11 08:17:41;;;;;;;4.07;3.10;;;;;;;-145.69;100.00;72562.66;5075423;28;20202;-77
2021/12/11 08:20:11;;;;;;;3.47;2.57;;;;;;;-145.69;100.00;72568.63;5075376;28;20272;-78
2021/12/11 08:22:38;;;;;;;4.40;2.73;;;;;;;-145.69;100.00;72566.63;5075010;28;20202;-78
2021/12/11 08:25:06;;;;;;;2.83;2.20;;;;;;;-145.69;100.00;72576.59;5075013;28;20222;-77
2021/12/11 08:27:33;;;;;;;4.33;3.00;;;;;;;-145.69;100.00;72588.53;5074951;28;20617;-78
2021/12/11 08:30:00;;;;;;;3.60;2.63;;;;;;;-145.69;100.00;72584.56;5073990;28;20215;-77
2021/12/11 08:32:28;;;;;;;5.60;3.53;;;;;;;-145.69;100.00;72576.59;5075162;28;20645;-77
2021/12/11 08:34:56;;;;;;;5.10;3.70;;;;;;;-145.69;100.00;72580.56;5074659;28;20202;-78
2021/12/11 08:37:24;;;;;;;3.27;2.80;;;;;;;-145.69;100.00;72580.56;5074634;28;20202;-79
2021/12/11 08:39:51;;;;;;;4.17;2.97;;;;;;;-145.69;100.00;72584.56;5071836;28;20191;-78
2021/12/11 08:42:21;;;;;;;5.03;2.90;;;;;;;-145.69;100.00;72588.53;5075044;28;20202;-77
2021/12/11 08:44:52;;;;;;;4.07;3.00;;;;;;;-145.69;100.00;72596.50;5074496;28;20239;-78
2021/12/11 08:47:21;;;;;;;8.03;3.40;;;;;;;-145.69;100.00;72598.47;5074663;28;20726;-78
2021/12/11 08:49:52;;;;;;;5.20;3.87;;;;;;;-145.69;100.00;72584.56;5074680;28;20203;-78
2021/12/11 08:52:22;;;;;;;3.87;2.90;;;;;;;-145.69;100.00;72592.50;5074525;28;20202;-78
2021/12/11 08:54:49;;;;;;;4.50;2.93;;;;;;;-145.69;100.00;72598.47;5074409;28;20597;-78
2021/12/11 08:57:19;;;;;;;2.60;2.10;;;;;;;-145.69;100.00;72600.47;5074353;28;20206;-78
2021/12/11 08:59:50;;;;;;;2.60;1.70;;;;;;;-145.69;100.00;72598.47;5075147;28;20205;-78
2021/12/11 09:02:19;;;;;;;3.63;2.57;;;;;;;-145.69;100.00;72604.44;5074533;28;20206;-78
2021/12/11 09:04:53;;;;;;;3.57;2.50;;;;;;;-145.69;100.00;72602.47;5074239;28;20209;-77
2021/12/11 09:07:24;;;;;;;3.43;2.70;;;;;;;-145.69;100.00;72592.50;5063161;28;20200;-77
2021/12/11 09:09:54;;;;;;;5.20;2.90;;;;;;;-145.69;100.00;72594.50;5054387;28;20200;-77
2021/12/11 09:12:26;;;;;;;3.70;2.40;;;;;;;-145.69;100.00;72600.47;5054137;28;20202;-79
2021/12/11 09:14:56;;;;;;;3.67;2.67;;;;;;;-145.69;100.00;72600.47;5054226;28;20211;-78
2021/12/11 09:17:26;;;;;;;4.67;3.33;;;;;;;-145.69;100.00;72614.41;5073370;28;20206;-79
2021/12/11 09:20:00;;;;;;;3.63;2.67;;;;;;;-145.69;100.00;72616.41;5074112;28;20209;-79
2021/12/11 09:22:30;;;;;;;2.73;2.33;;;;;;;-145.69;100.00;72600.47;5074284;28;20225;-78
2021/12/11 09:25:03;;;;;;;3.30;2.10;;;;;;;-145.69;100.00;72592.50;5074058;28;20566;-78
2021/12/11 09:27:36;;;;;;;5.30;2.20;;;;;;;-145.69;100.00;72592.50;5073681;28;20222;-77
2021/12/11 09:30:12;;;;;;;2.70;1.93;;;;;;;-145.69;100.00;72600.47;5073878;28;20199;-80
2021/12/11 09:32:45;;;;;;;2.80;2.13;;;;;;;-145.69;100.00;72576.59;5073920;28;20198;-78
2021/12/11 09:35:21;;;;;;;2.33;2.00;;;;;;;-145.69;100.00;72588.53;5073010;28;20669;-78
2021/12/11 09:37:52;;;;;;;2.97;1.83;;;;;;;-145.69;100.00;72586.53;5073656;28;20199;-78
2021/12/11 09:40:31;;;;;;;2.27;2.00;;;;;;;-145.69;100.00;72596.50;5072940;28;20194;-77
2021/12/11 09:42:57;;;;;;;2.77;2.30;;;;;;;-145.69;100.00;72594.50;5073652;28;20195;-76
2021/12/11 09:45:28;;;;;;;2.20;1.97;;;;;;;-145.69;100.00;72600.47;5073578;28;20227;-78
2021/12/11 09:48:04;;;;;;;4.00;2.00;;;;;;;-145.69;100.00;72604.44;5073519;28;20199;-78
2021/12/11 09:50:41;;;;;;;4.17;2.30;;;;;;;-145.69;100.00;72608.44;5073340;28;20241;-77
2021/12/11 09:53:07;;;;;;;3.03;2.40;;;;;;;-145.69;100.00;72616.41;5073039;28;20244;-79
2021/12/11 09:55:37;;;;;;;3.23;2.20;;;;;;;-145.69;100.00;72596.50;5073382;28;20205;-78
2021/12/11 09:58:06;;;;;;;2.63;2.03;;;;;;;-145.69;100.00;72608.44;5073372;28;20210;-78
2021/12/11 10:00:40;;;;;;;3.40;2.27;;;;;;;-145.69;100.00;72618.38;5073184;28;20210;-78
2021/12/11 10:03:08;;;;;;;2.87;2.20;;;;;;;-145.69;100.00;72628.34;5073225;28;20202;-79
2021/12/11 10:05:43;;;;;;;3.10;2.17;;;;;;;-145.69;100.00;72632.31;5072629;28;20233;-78
2021/12/11 10:08:28;;;;;;;3.03;2.10;;;;;;;-145.69;100.00;72624.34;5072798;28;20653;-80
2021/12/11 10:11:06;;;;;;;2.33;1.87;;;;;;;-145.69;100.00;72642.28;5073192;28;20286;-78
2021/12/11 10:13:35;;;;;;;4.50;2.10;;;;;;;-145.69;100.00;72648.25;5073088;28;20198;-77
2021/12/11 10:16:04;;;;;;;3.40;2.13;;;;;;;-145.69;100.00;72642.28;5072853;28;20684;-78
2021/12/11 10:18:34;;;;;;;3.20;2.10;;;;;;;-145.69;100.00;72626.34;5073116;28;20199;-78
2021/12/11 10:21:06;;;;;;;3.00;2.03;;;;;;;-145.69;100.00;72616.41;5073083;28;20211;-78
2021/12/11 10:23:36;;;;;;;2.50;1.87;;;;;;;-145.69;100.00;72632.31;5073001;28;20195;-78
2021/12/11 10:26:10;;;;;;;2.90;2.23;;;;;;;-145.69;100.00;72620.38;5072968;28;20309;-78
2021/12/11 10:28:38;;;;;;;2.90;2.10;;;;;;;-145.69;100.00;72626.34;5072778;28;20202;-78
2021/12/11 10:31:13;;;;;;;3.70;2.50;;;;;;;-145.69;100.00;72630.31;5072708;28;20195;-78
2021/12/11 10:33:39;;;;;;;3.07;2.17;;;;;;;-145.69;100.00;72644.25;5059538;28;20199;-79
2021/12/11 10:36:09;;;;;;;2.87;2.23;;;;;;;-145.69;100.00;72634.31;5052737;28;20207;-78
2021/12/11 10:38:37;;;;;;;4.40;3.07;;;;;;;-145.69;100.00;72634.31;5052620;28;20581;-78
2021/12/11 10:41:05;;;;;;;6.03;4.17;;;;;;;-145.69;100.00;72630.31;5069964;28;20203;-78
2021/12/11 10:43:37;;;;;;;6.83;4.23;;;;;;;-145.69;100.00;72624.34;5072821;28;20581;-78
2021/12/11 10:46:07;;;;;;;6.47;4.33;;;;;;;-145.69;100.00;72630.31;5072703;28;20227;-77
2021/12/11 10:48:35;;;;;;;5.57;3.07;;;;;;;-145.69;100.00;72652.22;5072699;28;20205;-79
2021/12/11 10:51:06;;;;;;;6.57;3.97;;;;;;;-145.69;100.00;72630.31;5072749;28;20669;-79
2021/12/11 10:53:35;;;;;;;7.93;4.60;;;;;;;-145.69;100.00;72632.31;5074265;28;20222;-78
2021/12/11 10:56:07;;;;;;;8.97;3.97;;;;;;;-145.69;100.00;72618.38;5065874;28;20190;-79
2021/12/11 10:58:39;;;;;;;6.90;4.00;;;;;;;-145.69;100.00;72606.44;5076748;28;20213;-79
2021/12/11 11:01:11;;;;;;;9.43;5.10;;;;;;;-145.69;100.00;72624.34;5076765;28;20209;-79
2021/12/11 11:03:46;;;;;;;6.10;4.03;;;;;;;-145.69;100.00;72622.38;5076464;28;20653;-78
2021/12/11 11:06:13;;;;;;;6.47;4.00;;;;;;;-145.69;100.00;72614.41;5076256;28;20222;-78
2021/12/11 11:08:40;;;;;;;5.03;3.37;;;;;;;-145.69;100.00;72600.47;5076692;28;20209;-78
2021/12/11 11:11:10;;;;;;;3.57;2.50;;;;;;;-145.69;100.00;72614.41;5076395;28;20205;-77
2021/12/11 11:13:36;;;;;;;5.53;2.97;;;;;;;-145.69;100.00;72620.38;5076552;28;20203;-80
2021/12/11 11:16:04;;;;;;;3.40;2.30;;;;;;;-145.69;100.00;72628.34;5076460;28;20205;-79
2021/12/11 11:18:32;;;;;;;4.57;3.07;;;;;;;-145.69;100.00;72624.34;5076445;28;20206;-78
2021/12/11 11:21:02;;;;;;;4.40;2.80;;;;;;;-145.69;100.00;72618.38;5076360;28;20206;-78